Copenhagen Kastrup Airport

EKCH | CPH

Copenhagen , Capital-Region , Denmark

Sunday, June 7th, 2020 | 08:44

Weather

EKCH 070620Z AUTO 17011KT 9999 NCD 14/10 Q1004 NOSIG

Charts

No Charts Available

Gates

119 Available

Runways

3 Available

Active ATC

Events -Coming Soon-

1 Events Coming Up Soon

Next event:
EKCH Flyout